TimeCDT,TemperatureF,Dew PointF,Humidity,Sea Level PressureIn,VisibilityMPH,Wind Direction,Wind SpeedMPH,Gust SpeedMPH,PrecipitationIn,Events,Conditions,WindDirDegrees,DateUTC
12:15 AM,70.7,66.6,87,29.74,10.0,Calm,Calm,-,N/A,,Clear,0,2013-09-01 05:15:00
12:35 AM,70.7,66.7,87,29.74,10.0,Calm,Calm,-,N/A,,Clear,0,2013-09-01 05:35:00
12:55 AM,70.3,66.9,89,29.75,10.0,Calm,Calm,-,N/A,,Clear,0,2013-09-01 05:55:00
1:15 AM,70.7,67.1,88,29.74,10.0,Calm,Calm,-,N/A,,Clear,0,2013-09-01 06:15:00
1:35 AM,71.2,67.3,87,29.76,10.0,Calm,Calm,-,N/A,,Clear,0,2013-09-01 06:35:00
1:55 AM,72.5,67.3,84,29.76,10.0,SW,4.6,-,N/A,Rain,Light Rain,220,2013-09-01 06:55:00
2:35 AM,70.9,66.9,87,29.79,10.0,West,5.8,-,N/A,,Clear,280,2013-09-01 07:35:00
2:55 AM,70.7,65.8,85,29.78,10.0,WNW,5.8,-,N/A,,Clear,290,2013-09-01 07:55:00
3:15 AM,70.2,64.9,83,29.78,10.0,WSW,3.5,-,N/A,,Clear,250,2013-09-01 08:15:00
3:35 AM,70.2,64.8,83,29.76,10.0,Calm,Calm,-,N/A,,Clear,0,2013-09-01 08:35:00
3:55 AM,68.9,64.6,86,29.77,10.0,Calm,Calm,-,N/A,,Clear,0,2013-09-01 08:55:00
4:15 AM,69.4,65.3,87,29.76,10.0,Calm,Calm,-,N/A,,Scattered Clouds,0,2013-09-01 09:15:00
4:35 AM,69.4,64.8,85,29.75,10.0,Calm,Calm,-,N/A,,Scattered Clouds,0,2013-09-01 09:35:00
4:55 AM,68.9,64.4,86,29.75,10.0,Calm,Calm,-,N/A,,Scattered Clouds,0,2013-09-01 09:55:00
5:15 AM,67.8,64.9,90,29.75,10.0,Calm,Calm,-,N/A,,Mostly Cloudy,0,2013-09-01 10:15:00
5:35 AM,69.1,64.4,85,29.76,10.0,SW,5.8,-,N/A,,Overcast,220,2013-09-01 10:35:00
5:55 AM,69.8,63.9,81,29.76,10.0,SW,4.6,-,N/A,,Overcast,230,2013-09-01 10:55:00
6:15 AM,70.7,63.0,76,29.77,10.0,WSW,6.9,-,N/A,,Overcast,240,2013-09-01 11:15:00
6:35 AM,70.7,62.6,75,29.78,10.0,West,8.1,-,N/A,,Overcast,260,2013-09-01 11:35:00
6:55 AM,70.0,61.2,73,29.77,10.0,WNW,10.4,16.1,N/A,,Overcast,290,2013-09-01 11:55:00
7:15 AM,69.3,61.2,75,29.78,10.0,WNW,8.1,-,N/A,,Overcast,290,2013-09-01 12:15:00
7:35 AM,68.9,61.0,76,29.78,10.0,WNW,11.5,-,N/A,,Overcast,300,2013-09-01 12:35:00
7:55 AM,68.2,60.8,77,29.78,10.0,WNW,12.7,-,N/A,,Mostly Cloudy,300,2013-09-01 12:55:00
8:15 AM,68.0,60.6,77,29.79,10.0,NW,10.4,-,N/A,,Scattered Clouds,310,2013-09-01 13:15:00
8:35 AM,69.1,60.3,73,29.79,10.0,WNW,10.4,-,N/A,,Scattered Clouds,300,2013-09-01 13:35:00
8:55 AM,70.0,59.9,70,29.80,10.0,WNW,6.9,-,N/A,,Clear,300,2013-09-01 13:55:00
9:15 AM,71.1,59.7,67,29.81,10.0,NNW,11.5,-,N/A,,Scattered Clouds,330,2013-09-01 14:15:00
9:35 AM,70.5,59.5,68,29.82,10.0,WNW,10.4,17.3,N/A,,Overcast,300,2013-09-01 14:35:00
9:55 AM,71.1,59.4,66,29.82,10.0,NW,8.1,-,N/A,,Overcast,310,2013-09-01 14:55:00
10:15 AM,70.0,59.0,68,29.83,10.0,WNW,12.7,-,N/A,,Overcast,300,2013-09-01 15:15:00
10:35 AM,70.3,59.2,68,29.83,10.0,West,8.1,-,N/A,,Overcast,280,2013-09-01 15:35:00
10:55 AM,70.3,59.5,69,29.83,10.0,WNW,9.2,-,N/A,,Overcast,300,2013-09-01 15:55:00
11:15 AM,70.9,59.2,66,29.83,10.0,WNW,9.2,16.1,N/A,,Overcast,300,2013-09-01 16:15:00
11:35 AM,71.8,58.8,64,29.83,10.0,WNW,8.1,-,N/A,,Overcast,290,2013-09-01 16:35:00
11:55 AM,74.7,58.5,57,29.83,10.0,WNW,11.5,-,N/A,,Overcast,300,2013-09-01 16:55:00
12:15 PM,75.0,58.6,57,29.83,10.0,NW,13.8,18.4,N/A,,Mostly Cloudy,310,2013-09-01 17:15:00
12:35 PM,75.2,57.0,53,29.84,10.0,West,11.5,16.1,N/A,,Scattered Clouds,280,2013-09-01 17:35:00
12:55 PM,77.2,56.5,49,29.84,10.0,WNW,11.5,16.1,N/A,,Mostly Cloudy,290,2013-09-01 17:55:00
1:15 PM,76.5,57.2,51,29.83,10.0,WNW,12.7,17.3,N/A,,Mostly Cloudy,300,2013-09-01 18:15:00
1:35 PM,77.4,56.1,48,29.83,10.0,West,12.7,19.6,N/A,,Mostly Cloudy,280,2013-09-01 18:35:00
1:55 PM,76.8,56.5,49,29.83,10.0,West,12.7,17.3,N/A,,Mostly Cloudy,270,2013-09-01 18:55:00
2:15 PM,77.2,57.6,51,29.83,10.0,WNW,13.8,19.6,N/A,,Overcast,300,2013-09-01 19:15:00
2:35 PM,77.7,57.9,50,29.83,10.0,NNW,16.1,-,N/A,,Mostly Cloudy,330,2013-09-01 19:35:00
2:55 PM,75.2,57.6,54,29.83,10.0,WNW,10.4,-,N/A,,Overcast,290,2013-09-01 19:55:00
3:15 PM,76.6,57.2,51,29.83,10.0,NW,15.0,-,N/A,,Overcast,310,2013-09-01 20:15:00
3:35 PM,77.5,55.2,46,29.83,10.0,West,15.0,19.6,N/A,,Overcast,280,2013-09-01 20:35:00
3:55 PM,78.1,55.8,46,29.83,10.0,WNW,13.8,-,N/A,,Mostly Cloudy,290,2013-09-01 20:55:00
4:15 PM,76.5,55.2,48,29.83,10.0,NW,13.8,19.6,N/A,,Overcast,310,2013-09-01 21:15:00
4:35 PM,76.1,55.6,49,29.84,10.0,WNW,15.0,-,N/A,,Overcast,300,2013-09-01 21:35:00
4:55 PM,75.4,56.7,52,29.85,10.0,WNW,11.5,-,N/A,,Overcast,290,2013-09-01 21:55:00
5:15 PM,74.5,56.5,53,29.85,10.0,NW,12.7,21.9,N/A,,Overcast,320,2013-09-01 22:15:00
5:35 PM,74.1,57.0,55,29.86,10.0,NW,10.4,17.3,N/A,,Overcast,310,2013-09-01 22:35:00
5:55 PM,73.4,57.2,57,29.86,10.0,NW,11.5,-,N/A,,Overcast,310,2013-09-01 22:55:00
6:15 PM,73.0,57.2,57,29.87,10.0,NW,10.4,-,N/A,,Overcast,310,2013-09-01 23:15:00
6:35 PM,72.5,56.7,57,29.87,10.0,WNW,10.4,19.6,N/A,,Overcast,300,2013-09-01 23:35:00
6:55 PM,72.0,57.2,60,29.87,10.0,WNW,11.5,-,N/A,,Overcast,290,2013-09-01 23:55:00
7:15 PM,70.7,57.2,62,29.88,10.0,NW,11.5,-,N/A,,Mostly Cloudy,310,2013-09-02 00:15:00
7:35 PM,69.6,57.2,65,29.88,10.0,NW,9.2,-,N/A,,Scattered Clouds,310,2013-09-02 00:35:00
7:55 PM,68.9,57.2,66,29.89,10.0,WNW,6.9,-,N/A,,Clear,300,2013-09-02 00:55:00
8:15 PM,68.4,56.8,67,29.89,10.0,WNW,6.9,-,N/A,,Clear,290,2013-09-02 01:15:00
8:35 PM,68.2,56.7,67,29.90,10.0,WNW,9.2,-,N/A,,Scattered Clouds,300,2013-09-02 01:35:00
8:55 PM,68.2,56.7,67,29.91,10.0,WNW,11.5,-,N/A,,Scattered Clouds,300,2013-09-02 01:55:00
9:15 PM,68.0,56.8,67,29.91,10.0,NW,9.2,16.1,N/A,,Scattered Clouds,310,2013-09-02 02:15:00
9:35 PM,67.8,57.2,69,29.92,10.0,NNW,11.5,-,N/A,,Mostly Cloudy,340,2013-09-02 02:35:00
9:55 PM,66.6,54.5,65,29.93,10.0,NNW,13.8,19.6,N/A,,Mostly Cloudy,340,2013-09-02 02:55:00
10:15 PM,65.3,54.0,67,29.93,10.0,NW,9.2,-,N/A,,Scattered Clouds,320,2013-09-02 03:15:00
10:35 PM,64.4,54.1,69,29.94,10.0,NNW,8.1,-,N/A,,Clear,330,2013-09-02 03:35:00
10:55 PM,63.9,53.8,70,29.94,10.0,NNW,10.4,-,N/A,,Clear,330,2013-09-02 03:55:00
11:15 PM,62.4,53.6,73,29.95,10.0,NNW,6.9,-,N/A,,Clear,330,2013-09-02 04:15:00
11:35 PM,61.5,53.1,74,29.95,10.0,NNW,8.1,-,N/A,,Clear,330,2013-09-02 04:35:00
11:55 PM,60.8,52.9,75,29.95,10.0,NNW,5.8,-,N/A,,Clear,330,2013-09-02 04:55:00